sensor_id;sensor_type;location;lat;lon;timestamp;pressure;altitude;pressure_sealevel;temperature;humidity
63321;BME280;49449;48.800;9.534;2023-05-12T00:01:04;98262.09;;;12.22;46.56
63321;BME280;49449;48.800;9.534;2023-05-12T00:03:32;98257.13;;;12.25;46.50
63321;BME280;49449;48.800;9.534;2023-05-12T00:06:00;98258.94;;;12.25;46.58
63321;BME280;49449;48.800;9.534;2023-05-12T00:08:31;98257.13;;;12.25;46.47
63321;BME280;49449;48.800;9.534;2023-05-12T00:11:01;98258.72;;;12.26;46.48
63321;BME280;49449;48.800;9.534;2023-05-12T00:13:29;98255.28;;;12.26;46.51
63321;BME280;49449;48.800;9.534;2023-05-12T00:15:57;98260.56;;;12.26;46.51
63321;BME280;49449;48.800;9.534;2023-05-12T00:18:25;98257.38;;;12.24;46.44
63321;BME280;49449;48.800;9.534;2023-05-12T00:20:54;98256.31;;;12.25;46.33
63321;BME280;49449;48.800;9.534;2023-05-12T00:23:22;98262.34;;;12.20;46.24
63321;BME280;49449;48.800;9.534;2023-05-12T00:25:51;98257.06;;;12.20;46.43
63321;BME280;49449;48.800;9.534;2023-05-12T00:28:19;98253.28;;;12.16;46.39
63321;BME280;49449;48.800;9.534;2023-05-12T00:30:47;98256.97;;;12.15;46.62
63321;BME280;49449;48.800;9.534;2023-05-12T00:33:14;98257.47;;;12.12;46.62
63321;BME280;49449;48.800;9.534;2023-05-12T00:35:43;98247.13;;;12.10;46.53
63321;BME280;49449;48.800;9.534;2023-05-12T00:38:11;98250.06;;;12.14;46.53
63321;BME280;49449;48.800;9.534;2023-05-12T00:40:39;98244.78;;;12.14;46.67
63321;BME280;49449;48.800;9.534;2023-05-12T00:43:08;98242.91;;;12.14;46.60
63321;BME280;49449;48.800;9.534;2023-05-12T00:45:36;98249.03;;;12.15;46.59
63321;BME280;49449;48.800;9.534;2023-05-12T00:48:05;98249.28;;;12.13;46.59
63321;BME280;49449;48.800;9.534;2023-05-12T00:50:34;98247.44;;;12.14;46.60
63321;BME280;49449;48.800;9.534;2023-05-12T00:53:03;98245.78;;;12.08;46.58
63321;BME280;49449;48.800;9.534;2023-05-12T00:55:31;98249.53;;;11.95;46.33
63321;BME280;49449;48.800;9.534;2023-05-12T00:57:59;98242.28;;;11.85;46.69
63321;BME280;49449;48.800;9.534;2023-05-12T01:00:28;98235.91;;;11.86;46.56
63321;BME280;49449;48.800;9.534;2023-05-12T01:02:56;98239.16;;;11.88;46.48
63321;BME280;49449;48.800;9.534;2023-05-12T01:05:29;98244.69;;;11.87;46.59
63321;BME280;49449;48.800;9.534;2023-05-12T01:07:59;98247.56;;;11.85;46.51
63321;BME280;49449;48.800;9.534;2023-05-12T01:10:27;98243.44;;;11.77;46.58
63321;BME280;49449;48.800;9.534;2023-05-12T01:12:55;98247.38;;;11.75;46.50
63321;BME280;49449;48.800;9.534;2023-05-12T01:15:23;98245.13;;;11.67;46.58
63321;BME280;49449;48.800;9.534;2023-05-12T01:17:56;98249.94;;;11.70;46.90
63321;BME280;49449;48.800;9.534;2023-05-12T01:20:25;98248.19;;;11.75;46.55
63321;BME280;49449;48.800;9.534;2023-05-12T01:22:56;98247.94;;;11.77;46.64
63321;BME280;49449;48.800;9.534;2023-05-12T01:25:27;98242.41;;;11.79;46.39
63321;BME280;49449;48.800;9.534;2023-05-12T01:27:59;98242.09;;;11.75;46.47
63321;BME280;49449;48.800;9.534;2023-05-12T01:30:28;98240.97;;;11.71;46.51
63321;BME280;49449;48.800;9.534;2023-05-12T01:32:56;98234.94;;;11.75;46.45
63321;BME280;49449;48.800;9.534;2023-05-12T01:35:24;98235.75;;;11.76;46.30
63321;BME280;49449;48.800;9.534;2023-05-12T01:37:52;98232.13;;;11.65;46.39
63321;BME280;49449;48.800;9.534;2023-05-12T01:40:21;98238.81;;;11.68;46.44
63321;BME280;49449;48.800;9.534;2023-05-12T01:42:49;98239.22;;;11.60;46.74
63321;BME280;49449;48.800;9.534;2023-05-12T01:45:18;98245.78;;;11.57;46.77
63321;BME280;49449;48.800;9.534;2023-05-12T01:47:45;98242.41;;;11.62;46.70
63321;BME280;49449;48.800;9.534;2023-05-12T01:50:13;98242.59;;;11.55;46.70
63321;BME280;49449;48.800;9.534;2023-05-12T01:52:41;98241.69;;;11.49;46.96
63321;BME280;49449;48.800;9.534;2023-05-12T01:55:09;98231.94;;;11.50;46.75
63321;BME280;49449;48.800;9.534;2023-05-12T01:57:37;98238.56;;;11.52;46.88
63321;BME280;49449;48.800;9.534;2023-05-12T02:00:06;98232.41;;;11.47;47.08
63321;BME280;49449;48.800;9.534;2023-05-12T02:02:36;98237.22;;;11.50;47.13
63321;BME280;49449;48.800;9.534;2023-05-12T02:05:05;98239.38;;;11.53;46.95
63321;BME280;49449;48.800;9.534;2023-05-12T02:07:33;98237.84;;;11.57;46.89
63321;BME280;49449;48.800;9.534;2023-05-12T02:10:01;98237.13;;;11.62;46.87
63321;BME280;49449;48.800;9.534;2023-05-12T02:12:29;98241.84;;;11.60;46.95
63321;BME280;49449;48.800;9.534;2023-05-12T02:14:56;98243.94;;;11.57;46.84
63321;BME280;49449;48.800;9.534;2023-05-12T02:17:24;98243.63;;;11.54;47.17
63321;BME280;49449;48.800;9.534;2023-05-12T02:19:55;98247.66;;;11.56;47.02
63321;BME280;49449;48.800;9.534;2023-05-12T02:22:23;98249.22;;;11.57;47.20
63321;BME280;49449;48.800;9.534;2023-05-12T02:24:51;98248.53;;;11.62;46.96
63321;BME280;49449;48.800;9.534;2023-05-12T02:27:19;98249.00;;;11.59;47.09
63321;BME280;49449;48.800;9.534;2023-05-12T02:29:47;98244.34;;;11.49;47.20
63321;BME280;49449;48.800;9.534;2023-05-12T02:32:15;98242.59;;;11.55;47.32
63321;BME280;49449;48.800;9.534;2023-05-12T02:34:42;98245.56;;;11.59;47.12
63321;BME280;49449;48.800;9.534;2023-05-12T02:37:12;98247.66;;;11.56;47.28
63321;BME280;49449;48.800;9.534;2023-05-12T02:39:40;98246.81;;;11.56;47.25
63321;BME280;49449;48.800;9.534;2023-05-12T02:42:08;98236.25;;;11.56;47.43
63321;BME280;49449;48.800;9.534;2023-05-12T02:44:35;98237.47;;;11.48;47.51
63321;BME280;49449;48.800;9.534;2023-05-12T02:47:04;98239.63;;;11.51;47.35
63321;BME280;49449;48.800;9.534;2023-05-12T02:49:31;98239.44;;;11.58;47.20
63321;BME280;49449;48.800;9.534;2023-05-12T02:51:59;98237.84;;;11.57;47.30
63321;BME280;49449;48.800;9.534;2023-05-12T02:54:28;98241.63;;;11.61;47.47
63321;BME280;49449;48.800;9.534;2023-05-12T02:56:56;98236.63;;;11.65;47.22
63321;BME280;49449;48.800;9.534;2023-05-12T02:59:25;98234.22;;;11.63;47.04
63321;BME280;49449;48.800;9.534;2023-05-12T03:01:52;98235.28;;;11.62;46.98
63321;BME280;49449;48.800;9.534;2023-05-12T03:04:20;98239.94;;;11.55;47.04
63321;BME280;49449;48.800;9.534;2023-05-12T03:06:48;98233.44;;;11.46;47.46
63321;BME280;49449;48.800;9.534;2023-05-12T03:09:16;98239.47;;;11.41;47.68
63321;BME280;49449;48.800;9.534;2023-05-12T03:11:45;98237.69;;;11.47;47.55
63321;BME280;49449;48.800;9.534;2023-05-12T03:14:13;98245.72;;;11.52;47.42
63321;BME280;49449;48.800;9.534;2023-05-12T03:16:40;98235.22;;;11.57;47.48
63321;BME280;49449;48.800;9.534;2023-05-12T03:19:08;98243.53;;;11.66;47.22
63321;BME280;49449;48.800;9.534;2023-05-12T03:21:36;98245.72;;;11.69;47.23
63321;BME280;49449;48.800;9.534;2023-05-12T03:24:04;98241.78;;;11.71;47.12
63321;BME280;49449;48.800;9.534;2023-05-12T03:26:35;98247.38;;;11.75;47.11
63321;BME280;49449;48.800;9.534;2023-05-12T03:29:04;98244.50;;;11.76;47.15
63321;BME280;49449;48.800;9.534;2023-05-12T03:31:31;98249.56;;;11.78;47.18
63321;BME280;49449;48.800;9.534;2023-05-12T03:33:59;98241.38;;;11.80;47.10
63321;BME280;49449;48.800;9.534;2023-05-12T03:36:27;98239.31;;;11.82;47.00
63321;BME280;49449;48.800;9.534;2023-05-12T03:38:55;98242.50;;;11.84;47.06
63321;BME280;49449;48.800;9.534;2023-05-12T03:41:23;98242.03;;;11.87;47.01
63321;BME280;49449;48.800;9.534;2023-05-12T03:43:50;98239.38;;;11.87;47.15
63321;BME280;49449;48.800;9.534;2023-05-12T03:46:20;98236.50;;;11.88;46.92
63321;BME280;49449;48.800;9.534;2023-05-12T03:48:48;98245.25;;;11.89;47.07
63321;BME280;49449;48.800;9.534;2023-05-12T03:51:15;98243.13;;;11.91;47.00
63321;BME280;49449;48.800;9.534;2023-05-12T03:53:43;98238.88;;;11.90;46.90
63321;BME280;49449;48.800;9.534;2023-05-12T03:56:13;98234.16;;;11.92;46.89
63321;BME280;49449;48.800;9.534;2023-05-12T03:58:42;98234.41;;;11.90;46.87
63321;BME280;49449;48.800;9.534;2023-05-12T04:01:11;98239.16;;;11.88;46.80
63321;BME280;49449;48.800;9.534;2023-05-12T04:03:40;98236.44;;;11.83;47.05
63321;BME280;49449;48.800;9.534;2023-05-12T04:06:08;98233.44;;;11.80;46.95
63321;BME280;49449;48.800;9.534;2023-05-12T04:08:36;98236.44;;;11.83;46.73
63321;BME280;49449;48.800;9.534;2023-05-12T04:11:05;98226.88;;;11.82;46.69
63321;BME280;49449;48.800;9.534;2023-05-12T04:13:34;98236.25;;;11.73;46.88
63321;BME280;49449;48.800;9.534;2023-05-12T04:16:03;98228.22;;;11.68;47.21
63321;BME280;49449;48.800;9.534;2023-05-12T04:18:30;98225.91;;;11.71;46.97
63321;BME280;49449;48.800;9.534;2023-05-12T04:21:02;98226.22;;;11.75;46.98
63321;BME280;49449;48.800;9.534;2023-05-12T04:23:30;98225.97;;;11.76;46.81
63321;BME280;49449;48.800;9.534;2023-05-12T04:25:58;98232.63;;;11.79;46.84
63321;BME280;49449;48.800;9.534;2023-05-12T04:28:26;98230.31;;;11.83;46.76
63321;BME280;49449;48.800;9.534;2023-05-12T04:30:53;98240.31;;;11.81;46.82
63321;BME280;49449;48.800;9.534;2023-05-12T04:33:21;98240.66;;;11.84;46.79
63321;BME280;49449;48.800;9.534;2023-05-12T04:35:54;98245.47;;;11.87;46.83
63321;BME280;49449;48.800;9.534;2023-05-12T04:38:23;98247.81;;;11.84;46.94
63321;BME280;49449;48.800;9.534;2023-05-12T04:40:55;98248.13;;;11.87;46.93
63321;BME280;49449;48.800;9.534;2023-05-12T04:43:23;98246.59;;;11.91;46.84
63321;BME280;49449;48.800;9.534;2023-05-12T04:45:54;98251.41;;;11.94;46.69
63321;BME280;49449;48.800;9.534;2023-05-12T04:48:22;98254.84;;;11.95;46.88
63321;BME280;49449;48.800;9.534;2023-05-12T04:50:50;98250.38;;;11.96;46.73
63321;BME280;49449;48.800;9.534;2023-05-12T04:53:17;98262.78;;;11.95;46.76
63321;BME280;49449;48.800;9.534;2023-05-12T04:55:47;98254.59;;;11.97;46.83
63321;BME280;49449;48.800;9.534;2023-05-12T04:58:15;98254.34;;;11.98;46.82
63321;BME280;49449;48.800;9.534;2023-05-12T05:00:43;98256.84;;;12.05;46.76
63321;BME280;49449;48.800;9.534;2023-05-12T05:03:11;98259.50;;;12.05;46.67
63321;BME280;49449;48.800;9.534;2023-05-12T05:05:39;98264.03;;;12.09;46.56
63321;BME280;49449;48.800;9.534;2023-05-12T05:08:06;98263.31;;;12.14;46.57
63321;BME280;49449;48.800;9.534;2023-05-12T05:10:34;98260.66;;;12.14;46.50
63321;BME280;49449;48.800;9.534;2023-05-12T05:13:03;98267.81;;;12.13;46.58
63321;BME280;49449;48.800;9.534;2023-05-12T05:15:31;98267.56;;;12.15;46.35
63321;BME280;49449;48.800;9.534;2023-05-12T05:17:59;98270.78;;;12.17;46.32
63321;BME280;49449;48.800;9.534;2023-05-12T05:20:27;98267.88;;;12.19;46.45
63321;BME280;49449;48.800;9.534;2023-05-12T05:22:55;98271.09;;;12.21;46.42
63321;BME280;49449;48.800;9.534;2023-05-12T05:25:22;98274.06;;;12.24;46.30
63321;BME280;49449;48.800;9.534;2023-05-12T05:27:51;98265.31;;;12.24;46.28
63321;BME280;49449;48.800;9.534;2023-05-12T05:30:20;98273.81;;;12.26;46.26
63321;BME280;49449;48.800;9.534;2023-05-12T05:32:48;98273.81;;;12.26;46.20
63321;BME280;49449;48.800;9.534;2023-05-12T05:35:16;98269.84;;;12.28;46.21
63321;BME280;49449;48.800;9.534;2023-05-12T05:37:44;98271.72;;;12.28;46.31
63321;BME280;49449;48.800;9.534;2023-05-12T05:40:11;98272.50;;;12.28;46.12
63321;BME280;49449;48.800;9.534;2023-05-12T05:42:39;98266.41;;;12.28;46.10
63321;BME280;49449;48.800;9.534;2023-05-12T05:45:08;98274.13;;;12.29;46.02
63321;BME280;49449;48.800;9.534;2023-05-12T05:47:37;98273.31;;;12.29;46.10
63321;BME280;49449;48.800;9.534;2023-05-12T05:50:06;98273.31;;;12.29;46.09
63321;BME280;49449;48.800;9.534;2023-05-12T05:52:34;98271.00;;;12.32;46.05
63321;BME280;49449;48.800;9.534;2023-05-12T05:55:02;98275.97;;;12.29;46.12
63321;BME280;49449;48.800;9.534;2023-05-12T05:57:29;98274.91;;;12.30;46.13
63321;BME280;49449;48.800;9.534;2023-05-12T05:59:57;98284.47;;;12.31;46.04
63321;BME280;49449;48.800;9.534;2023-05-12T06:02:25;98275.97;;;12.29;46.07
63321;BME280;49449;48.800;9.534;2023-05-12T06:04:54;98280.22;;;12.30;46.08
63321;BME280;49449;48.800;9.534;2023-05-12T06:07:22;98282.38;;;12.33;45.99
63321;BME280;49449;48.800;9.534;2023-05-12T06:09:49;98290.09;;;12.35;46.03
63321;BME280;49449;48.800;9.534;2023-05-12T06:12:19;98289.84;;;12.36;46.20
63321;BME280;49449;48.800;9.534;2023-05-12T06:14:47;98296.97;;;12.36;46.02
63321;BME280;49449;48.800;9.534;2023-05-12T06:17:14;98289.59;;;12.38;45.91
63321;BME280;49449;48.800;9.534;2023-05-12T06:19:42;98294.63;;;12.39;46.02
63321;BME280;49449;48.800;9.534;2023-05-12T06:22:14;98288.59;;;12.44;45.84
63321;BME280;49449;48.800;9.534;2023-05-12T06:24:42;98284.66;;;12.46;45.62
63321;BME280;49449;48.800;9.534;2023-05-12T06:27:10;98296.13;;;12.52;45.84
63321;BME280;49449;48.800;9.534;2023-05-12T06:29:38;98290.59;;;12.54;45.63
63321;BME280;49449;48.800;9.534;2023-05-12T06:32:06;98297.53;;;12.60;45.63
63321;BME280;49449;48.800;9.534;2023-05-12T06:34:34;98299.94;;;12.61;45.50
63321;BME280;49449;48.800;9.534;2023-05-12T06:37:02;98300.81;;;12.67;45.55
63321;BME280;49449;48.800;9.534;2023-05-12T06:39:31;98307.31;;;12.76;45.40
63321;BME280;49449;48.800;9.534;2023-05-12T06:41:59;98301.28;;;12.81;45.06
63321;BME280;49449;48.800;9.534;2023-05-12T06:44:27;98289.41;;;12.88;44.85
63321;BME280;49449;48.800;9.534;2023-05-12T06:46:55;98295.84;;;12.93;44.76
63321;BME280;49449;48.800;9.534;2023-05-12T06:49:23;98300.69;;;13.01;44.47
63321;BME280;49449;48.800;9.534;2023-05-12T06:51:50;98298.28;;;12.99;44.06
63321;BME280;49449;48.800;9.534;2023-05-12T06:54:18;98297.84;;;13.07;44.49
63321;BME280;49449;48.800;9.534;2023-05-12T06:56:47;98303.75;;;13.15;44.65
63321;BME280;49449;48.800;9.534;2023-05-12T06:59:15;98293.78;;;13.27;44.51
63321;BME280;49449;48.800;9.534;2023-05-12T07:01:43;98289.91;;;13.35;44.09
63321;BME280;49449;48.800;9.534;2023-05-12T07:04:12;98301.59;;;13.39;43.87
63321;BME280;49449;48.800;9.534;2023-05-12T07:06:40;98295.53;;;13.43;43.71
63321;BME280;49449;48.800;9.534;2023-05-12T07:09:07;98295.88;;;13.52;43.68
63321;BME280;49449;48.800;9.534;2023-05-12T07:11:35;98288.75;;;13.58;43.56
63321;BME280;49449;48.800;9.534;2023-05-12T07:14:04;98293.31;;;13.62;43.35
63321;BME280;49449;48.800;9.534;2023-05-12T07:16:32;98295.53;;;13.71;43.42
63321;BME280;49449;48.800;9.534;2023-05-12T07:19:00;98288.63;;;13.75;43.36
63321;BME280;49449;48.800;9.534;2023-05-12T07:21:28;98284.69;;;13.77;43.37
63321;BME280;49449;48.800;9.534;2023-05-12T07:23:56;98280.97;;;13.78;42.98
63321;BME280;49449;48.800;9.534;2023-05-12T07:26:24;98286.78;;;13.70;42.68
63321;BME280;49449;48.800;9.534;2023-05-12T07:28:54;98285.84;;;13.59;42.55
63321;BME280;49449;48.800;9.534;2023-05-12T07:31:23;98286.91;;;13.58;42.28
63321;BME280;49449;48.800;9.534;2023-05-12T07:33:50;98286.09;;;13.58;42.50
63321;BME280;49449;48.800;9.534;2023-05-12T07:36:18;98288.47;;;13.59;42.54
63321;BME280;49449;48.800;9.534;2023-05-12T07:38:47;98291.41;;;13.58;42.57
63321;BME280;49449;48.800;9.534;2023-05-12T07:41:15;98285.84;;;13.59;42.28
63321;BME280;49449;48.800;9.534;2023-05-12T07:43:42;98287.44;;;13.60;42.07
63321;BME280;49449;48.800;9.534;2023-05-12T07:46:10;98284.78;;;13.60;42.15
63321;BME280;49449;48.800;9.534;2023-05-12T07:48:39;98287.22;;;13.62;42.34
63321;BME280;49449;48.800;9.534;2023-05-12T07:51:07;98277.94;;;13.64;42.57
63321;BME280;49449;48.800;9.534;2023-05-12T07:53:35;98283.25;;;13.64;42.66
63321;BME280;49449;48.800;9.534;2023-05-12T07:56:03;98282.72;;;13.62;42.66
63321;BME280;49449;48.800;9.534;2023-05-12T07:58:32;98285.44;;;13.73;42.74
63321;BME280;49449;48.800;9.534;2023-05-12T08:01:00;98281.53;;;13.86;42.39
63321;BME280;49449;48.800;9.534;2023-05-12T08:03:31;98282.66;;;13.90;42.32
63321;BME280;49449;48.800;9.534;2023-05-12T08:06:00;98283.56;;;14.06;41.60
63321;BME280;49449;48.800;9.534;2023-05-12T08:08:29;98286.19;;;14.00;41.65
63321;BME280;49449;48.800;9.534;2023-05-12T08:10:57;98284.59;;;14.05;42.18
63321;BME280;49449;48.800;9.534;2023-05-12T08:13:24;98284.16;;;14.18;41.70
63321;BME280;49449;48.800;9.534;2023-05-12T08:15:52;98292.16;;;14.28;41.77
63321;BME280;49449;48.800;9.534;2023-05-12T08:18:20;98292.75;;;14.35;41.35
63321;BME280;49449;48.800;9.534;2023-05-12T08:20:48;98284.53;;;14.42;41.49
63321;BME280;49449;48.800;9.534;2023-05-12T08:23:17;98281.94;;;14.47;40.70
63321;BME280;49449;48.800;9.534;2023-05-12T08:25:45;98274.22;;;14.51;40.49
63321;BME280;49449;48.800;9.534;2023-05-12T08:28:13;98275.75;;;14.42;40.85
63321;BME280;49449;48.800;9.534;2023-05-12T08:30:41;98286.44;;;14.47;40.30
63321;BME280;49449;48.800;9.534;2023-05-12T08:33:10;98291.00;;;14.51;40.69
63321;BME280;49449;48.800;9.534;2023-05-12T08:35:38;98283.03;;;14.62;40.73
63321;BME280;49449;48.800;9.534;2023-05-12T08:38:06;98287.34;;;14.68;40.33
63321;BME280;49449;48.800;9.534;2023-05-12T08:40:40;98284.13;;;14.61;40.40
63321;BME280;49449;48.800;9.534;2023-05-12T08:43:17;98282.75;;;14.48;40.48
63321;BME280;49449;48.800;9.534;2023-05-12T08:45:50;98283.03;;;14.56;40.26
63321;BME280;49449;48.800;9.534;2023-05-12T08:48:25;98289.44;;;14.61;40.31
63321;BME280;49449;48.800;9.534;2023-05-12T08:50:54;98283.31;;;14.65;40.28
63321;BME280;49449;48.800;9.534;2023-05-12T08:53:24;98292.66;;;14.73;40.27
63321;BME280;49449;48.800;9.534;2023-05-12T08:55:55;98293.19;;;14.70;39.71
63321;BME280;49449;48.800;9.534;2023-05-12T08:58:44;98287.84;;;14.65;40.14
63321;BME280;49449;48.800;9.534;2023-05-12T09:01:13;98296.38;;;14.72;40.09
63321;BME280;49449;48.800;9.534;2023-05-12T09:03:42;98288.16;;;14.78;40.17
63321;BME280;49449;48.800;9.534;2023-05-12T09:06:10;98291.34;;;14.81;40.33
63321;BME280;49449;48.800;9.534;2023-05-12T09:08:39;98296.19;;;14.89;39.70
63321;BME280;49449;48.800;9.534;2023-05-12T09:11:10;98288.72;;;14.91;38.88
63321;BME280;49449;48.800;9.534;2023-05-12T09:13:44;98285.25;;;14.85;39.65
63321;BME280;49449;48.800;9.534;2023-05-12T09:16:18;98288.75;;;14.96;40.01
63321;BME280;49449;48.800;9.534;2023-05-12T09:18:50;98292.72;;;14.99;39.90
63321;BME280;49449;48.800;9.534;2023-05-12T09:21:18;98286.91;;;15.07;40.03
63321;BME280;49449;48.800;9.534;2023-05-12T09:23:54;98292.50;;;15.10;39.98
63321;BME280;49449;48.800;9.534;2023-05-12T09:26:24;98286.41;;;15.20;39.96
63321;BME280;49449;48.800;9.534;2023-05-12T09:28:53;98290.66;;;15.26;39.26
63321;BME280;49449;48.800;9.534;2023-05-12T09:31:23;98286.94;;;15.22;38.84
63321;BME280;49449;48.800;9.534;2023-05-12T09:33:52;98287.72;;;15.18;39.55
63321;BME280;49449;48.800;9.534;2023-05-12T09:36:22;98292.78;;;15.14;39.51
63321;BME280;49449;48.800;9.534;2023-05-12T09:39:00;98287.44;;;15.14;39.47
63321;BME280;49449;48.800;9.534;2023-05-12T09:41:34;98287.19;;;15.15;39.66
63321;BME280;49449;48.800;9.534;2023-05-12T09:44:02;98290.63;;;15.16;39.97
63321;BME280;49449;48.800;9.534;2023-05-12T09:46:30;98292.75;;;15.04;39.54
63321;BME280;49449;48.800;9.534;2023-05-12T09:48:58;98300.69;;;14.83;39.54
63321;BME280;49449;48.800;9.534;2023-05-12T09:51:26;98291.06;;;14.72;39.52
63321;BME280;49449;48.800;9.534;2023-05-12T09:53:54;98299.28;;;14.70;39.57
63321;BME280;49449;48.800;9.534;2023-05-12T09:56:27;98306.97;;;14.62;39.51
63321;BME280;49449;48.800;9.534;2023-05-12T09:58:58;98301.13;;;14.65;39.36
63321;BME280;49449;48.800;9.534;2023-05-12T10:01:28;98302.16;;;14.53;39.97
63321;BME280;49449;48.800;9.534;2023-05-12T10:03:57;98305.78;;;14.42;40.29
63321;BME280;49449;48.800;9.534;2023-05-12T10:06:29;98306.03;;;14.40;40.07
63321;BME280;49449;48.800;9.534;2023-05-12T10:09:03;98300.72;;;14.40;40.17
63321;BME280;49449;48.800;9.534;2023-05-12T10:11:31;98300.47;;;14.42;40.02
63321;BME280;49449;48.800;9.534;2023-05-12T10:14:01;98304.19;;;14.41;40.36
63321;BME280;49449;48.800;9.534;2023-05-12T10:16:29;98307.88;;;14.35;40.54
63321;BME280;49449;48.800;9.534;2023-05-12T10:18:58;98308.69;;;14.35;40.75
63321;BME280;49449;48.800;9.534;2023-05-12T10:21:27;98308.34;;;14.21;40.78
63321;BME280;49449;48.800;9.534;2023-05-12T10:23:55;98311.25;;;14.20;40.76
63321;BME280;49449;48.800;9.534;2023-05-12T10:26:24;98304.34;;;14.19;40.88
63321;BME280;49449;48.800;9.534;2023-05-12T10:28:52;98307.50;;;14.16;41.28
63321;BME280;49449;48.800;9.534;2023-05-12T10:31:22;98301.88;;;14.02;41.68
63321;BME280;49449;48.800;9.534;2023-05-12T10:33:55;98310.78;;;13.91;41.74
63321;BME280;49449;48.800;9.534;2023-05-12T10:36:24;98308.91;;;13.86;42.27
63321;BME280;49449;48.800;9.534;2023-05-12T10:38:52;98306.72;;;13.78;42.10
63321;BME280;49449;48.800;9.534;2023-05-12T10:41:30;98309.84;;;13.70;42.34
63321;BME280;49449;48.800;9.534;2023-05-12T10:43:58;98305.69;;;13.52;42.58
63321;BME280;49449;48.800;9.534;2023-05-12T10:46:27;98307.66;;;13.61;42.44
63321;BME280;49449;48.800;9.534;2023-05-12T10:48:57;98301.69;;;13.49;42.36
63321;BME280;49449;48.800;9.534;2023-05-12T10:51:26;98308.22;;;13.63;42.25
63321;BME280;49449;48.800;9.534;2023-05-12T10:53:58;98307.78;;;13.77;41.87
63321;BME280;49449;48.800;9.534;2023-05-12T10:56:29;98309.97;;;13.85;41.76
63321;BME280;49449;48.800;9.534;2023-05-12T10:59:13;98316.88;;;13.86;41.50
63321;BME280;49449;48.800;9.534;2023-05-12T11:01:56;98307.47;;;13.73;41.12
63321;BME280;49449;48.800;9.534;2023-05-12T11:04:35;98311.50;;;13.76;41.11
63321;BME280;49449;48.800;9.534;2023-05-12T11:07:04;98309.94;;;13.80;40.81
63321;BME280;49449;48.800;9.534;2023-05-12T11:09:34;98311.50;;;13.76;40.60
63321;BME280;49449;48.800;9.534;2023-05-12T11:12:06;98312.56;;;13.80;40.55
63321;BME280;49449;48.800;9.534;2023-05-12T11:14:35;98317.19;;;13.90;39.98
63321;BME280;49449;48.800;9.534;2023-05-12T11:17:04;98319.78;;;13.85;39.99
63321;BME280;49449;48.800;9.534;2023-05-12T11:19:32;98311.88;;;13.90;39.52
63321;BME280;49449;48.800;9.534;2023-05-12T11:22:04;98313.31;;;14.08;39.27
63321;BME280;49449;48.800;9.534;2023-05-12T11:24:32;98305.34;;;14.08;39.69
63321;BME280;49449;48.800;9.534;2023-05-12T11:27:00;98310.16;;;14.11;39.93
63321;BME280;49449;48.800;9.534;2023-05-12T11:29:29;98311.47;;;14.13;40.03
63321;BME280;49449;48.800;9.534;2023-05-12T11:31:58;98312.53;;;14.07;39.87
63321;BME280;49449;48.800;9.534;2023-05-12T11:34:27;98311.50;;;14.18;40.03
63321;BME280;49449;48.800;9.534;2023-05-12T11:36:55;98308.56;;;14.15;40.38
63321;BME280;49449;48.800;9.534;2023-05-12T11:39:25;98316.56;;;14.20;40.60
63321;BME280;49449;48.800;9.534;2023-05-12T11:41:53;98308.66;;;14.30;40.05
63321;BME280;49449;48.800;9.534;2023-05-12T11:44:24;98315.34;;;14.38;39.79
63321;BME280;49449;48.800;9.534;2023-05-12T11:46:56;98310.41;;;14.57;40.27
63321;BME280;49449;48.800;9.534;2023-05-12T11:49:25;98309.94;;;14.70;40.16
63321;BME280;49449;48.800;9.534;2023-05-12T11:51:55;98320.38;;;14.87;40.13
63321;BME280;49449;48.800;9.534;2023-05-12T11:54:26;98309.78;;;14.98;39.08
63321;BME280;49449;48.800;9.534;2023-05-12T11:56:54;98317.13;;;14.70;38.66
63321;BME280;49449;48.800;9.534;2023-05-12T11:59:27;98311.84;;;14.85;38.72
63321;BME280;49449;48.800;9.534;2023-05-12T12:01:55;98317.78;;;14.45;39.27
63321;BME280;49449;48.800;9.534;2023-05-12T12:04:36;98324.44;;;14.47;39.35
63321;BME280;49449;48.800;9.534;2023-05-12T12:07:08;98323.41;;;14.48;38.63
63321;BME280;49449;48.800;9.534;2023-05-12T12:09:37;98329.97;;;14.40;38.87
63321;BME280;49449;48.800;9.534;2023-05-12T12:12:08;98328.00;;;14.20;40.42
63321;BME280;49449;48.800;9.534;2023-05-12T12:14:36;98335.03;;;13.99;42.02
63321;BME280;49449;48.800;9.534;2023-05-12T12:17:06;98339.72;;;13.87;42.40
63321;BME280;49449;48.800;9.534;2023-05-12T12:19:34;98338.78;;;14.04;41.95
63321;BME280;49449;48.800;9.534;2023-05-12T12:22:02;98339.88;;;14.08;42.40
63321;BME280;49449;48.800;9.534;2023-05-12T12:24:31;98348.84;;;14.01;43.23
63321;BME280;49449;48.800;9.534;2023-05-12T12:26:59;98345.19;;;14.08;43.33
63321;BME280;49449;48.800;9.534;2023-05-12T12:29:27;98345.84;;;13.93;43.52
63321;BME280;49449;48.800;9.534;2023-05-12T12:31:57;98346.56;;;13.78;43.54
63321;BME280;49449;48.800;9.534;2023-05-12T12:34:25;98348.00;;;13.96;43.31
63321;BME280;49449;48.800;9.534;2023-05-12T12:36:52;98347.13;;;13.85;43.62
63321;BME280;49449;48.800;9.534;2023-05-12T12:39:20;98342.44;;;13.97;43.36
63321;BME280;49449;48.800;9.534;2023-05-12T12:41:50;98352.63;;;14.06;43.05
63321;BME280;49449;48.800;9.534;2023-05-12T12:44:17;98343.47;;;13.91;43.65
63321;BME280;49449;48.800;9.534;2023-05-12T12:46:45;98344.22;;;13.87;43.53
63321;BME280;49449;48.800;9.534;2023-05-12T12:49:13;98349.44;;;14.09;43.39
63321;BME280;49449;48.800;9.534;2023-05-12T12:51:41;98346.28;;;14.12;42.93
63321;BME280;49449;48.800;9.534;2023-05-12T12:54:11;98345.25;;;14.18;43.19
63321;BME280;49449;48.800;9.534;2023-05-12T12:56:39;98353.78;;;14.20;42.75
63321;BME280;49449;48.800;9.534;2023-05-12T12:59:08;98346.84;;;14.19;42.85
63321;BME280;49449;48.800;9.534;2023-05-12T13:01:37;98342.63;;;14.23;42.88
63321;BME280;49449;48.800;9.534;2023-05-12T13:04:04;98345.34;;;14.33;42.32
63321;BME280;49449;48.800;9.534;2023-05-12T13:06:32;98352.25;;;14.34;42.50
63321;BME280;49449;48.800;9.534;2023-05-12T13:09:00;98349.91;;;14.43;42.37